sensor_id;sensor_type;location;lat;lon;timestamp;pressure;altitude;pressure_sealevel;temperature;humidity
59417;BME280;45222;52.458;20.914;2023-02-11T00:02:36;101986.88;;;1.01;84.68
59417;BME280;45222;52.458;20.914;2023-02-11T00:06:25;101978.14;;;1.02;84.68
59417;BME280;45222;52.458;20.914;2023-02-11T00:10:14;101975.16;;;1.02;84.71
59417;BME280;45222;52.458;20.914;2023-02-11T00:14:04;101973.42;;;1.03;84.52
59417;BME280;45222;52.458;20.914;2023-02-11T00:17:53;101974.42;;;1.00;84.48
59417;BME280;45222;52.458;20.914;2023-02-11T00:21:41;101970.45;;;1.03;84.47
59417;BME280;45222;52.458;20.914;2023-02-11T00:25:29;101960.29;;;1.02;84.54
59417;BME280;45222;52.458;20.914;2023-02-11T00:29:17;101946.06;;;1.01;84.34
59417;BME280;45222;52.458;20.914;2023-02-11T00:33:05;101925.73;;;1.01;84.14
59417;BME280;45222;52.458;20.914;2023-02-11T00:36:53;101920.13;;;1.01;84.08
59417;BME280;45222;52.458;20.914;2023-02-11T00:40:41;101905.76;;;0.99;84.11
59417;BME280;45222;52.458;20.914;2023-02-11T00:44:29;101895.56;;;0.98;84.11
59417;BME280;45222;52.458;20.914;2023-02-11T00:48:17;101885.38;;;0.96;84.15
59417;BME280;45222;52.458;20.914;2023-02-11T00:52:05;101878.31;;;0.93;84.19
59417;BME280;45222;52.458;20.914;2023-02-11T00:55:53;101871.99;;;0.92;84.12
59417;BME280;45222;52.458;20.914;2023-02-11T00:59:41;101865.18;;;0.93;84.18
59417;BME280;45222;52.458;20.914;2023-02-11T01:03:30;101857.67;;;0.95;84.09
59417;BME280;45222;52.458;20.914;2023-02-11T01:07:18;101841.61;;;0.98;83.69
59417;BME280;45222;52.458;20.914;2023-02-11T01:11:11;101820.36;;;0.96;83.65
59417;BME280;45222;52.458;20.914;2023-02-11T01:14:59;101805.65;;;0.95;83.77
59417;BME280;45222;52.458;20.914;2023-02-11T01:18:48;101803.07;;;0.98;83.57
59417;BME280;45222;52.458;20.914;2023-02-11T01:22:36;101799.54;;;0.97;83.51
59417;BME280;45222;52.458;20.914;2023-02-11T01:26:25;101799.02;;;0.96;83.46
59417;BME280;45222;52.458;20.914;2023-02-11T01:30:14;101808.98;;;0.95;83.36
59417;BME280;45222;52.458;20.914;2023-02-11T01:34:01;101806.25;;;0.99;83.31
59417;BME280;45222;52.458;20.914;2023-02-11T01:37:49;101810.29;;;1.00;83.19
59417;BME280;45222;52.458;20.914;2023-02-11T01:41:37;101795.40;;;1.01;82.88
59417;BME280;45222;52.458;20.914;2023-02-11T01:45:54;101786.08;;;0.99;82.89
59417;BME280;45222;52.458;20.914;2023-02-11T01:49:46;101775.40;;;0.99;83.07
59417;BME280;45222;52.458;20.914;2023-02-11T01:53:34;101771.39;;;1.00;83.01
59417;BME280;45222;52.458;20.914;2023-02-11T01:57:43;101757.93;;;1.02;82.86
59417;BME280;45222;52.458;20.914;2023-02-11T02:01:34;101739.85;;;1.00;82.74
59417;BME280;45222;52.458;20.914;2023-02-11T02:05:29;101724.42;;;0.99;82.83
59417;BME280;45222;52.458;20.914;2023-02-11T02:09:21;101713.90;;;0.97;82.83
59417;BME280;45222;52.458;20.914;2023-02-11T02:13:10;101712.80;;;0.94;82.94
59417;BME280;45222;52.458;20.914;2023-02-11T02:16:58;101724.85;;;0.90;82.96
59417;BME280;45222;52.458;20.914;2023-02-11T02:25:29;101709.83;;;0.95;82.88
59417;BME280;45222;52.458;20.914;2023-02-11T02:29:39;101681.26;;;0.92;82.75
59417;BME280;45222;52.458;20.914;2023-02-11T02:33:39;101686.30;;;0.90;82.83
59417;BME280;45222;52.458;20.914;2023-02-11T02:37:32;101689.30;;;0.90;82.89
59417;BME280;45222;52.458;20.914;2023-02-11T02:41:25;101687.75;;;0.93;83.02
59417;BME280;45222;52.458;20.914;2023-02-11T02:45:15;101684.83;;;0.98;82.94
59417;BME280;45222;52.458;20.914;2023-02-11T02:49:11;101680.98;;;0.98;82.56
59417;BME280;45222;52.458;20.914;2023-02-11T02:53:11;101665.23;;;0.99;82.66
59417;BME280;45222;52.458;20.914;2023-02-11T02:57:12;101659.30;;;1.01;82.33
59417;BME280;45222;52.458;20.914;2023-02-11T03:01:10;101647.25;;;1.06;81.90
59417;BME280;45222;52.458;20.914;2023-02-11T03:05:05;101645.14;;;1.03;81.98
59417;BME280;45222;52.458;20.914;2023-02-11T03:09:02;101639.69;;;1.02;82.06
59417;BME280;45222;52.458;20.914;2023-02-11T03:12:52;101639.69;;;1.03;81.90
59417;BME280;45222;52.458;20.914;2023-02-11T03:16:41;101629.14;;;0.99;81.80
59417;BME280;45222;52.458;20.914;2023-02-11T03:20:31;101628.63;;;1.00;81.88
59417;BME280;45222;52.458;20.914;2023-02-11T03:24:27;101620.59;;;1.03;81.74
59417;BME280;45222;52.458;20.914;2023-02-11T03:28:22;101597.48;;;1.03;81.50
59417;BME280;45222;52.458;20.914;2023-02-11T03:32:16;101592.91;;;1.03;81.22
59417;BME280;45222;52.458;20.914;2023-02-11T03:36:09;101599.77;;;1.04;81.34
59417;BME280;45222;52.458;20.914;2023-02-11T03:40:04;101599.58;;;1.02;81.23
59417;BME280;45222;52.458;20.914;2023-02-11T03:43:54;101585.54;;;1.01;81.14
59417;BME280;45222;52.458;20.914;2023-02-11T03:47:47;101567.31;;;1.00;81.23
59417;BME280;45222;52.458;20.914;2023-02-11T03:51:38;101562.06;;;1.00;81.12
59417;BME280;45222;52.458;20.914;2023-02-11T03:55:29;101550.10;;;0.95;81.04
59417;BME280;45222;52.458;20.914;2023-02-11T03:59:19;101537.97;;;0.91;81.03
59417;BME280;45222;52.458;20.914;2023-02-11T04:03:08;101529.91;;;0.91;81.06
59417;BME280;45222;52.458;20.914;2023-02-11T04:06:56;101520.45;;;0.90;81.16
59417;BME280;45222;52.458;20.914;2023-02-11T04:10:44;101523.95;;;0.90;80.97
59417;BME280;45222;52.458;20.914;2023-02-11T04:14:32;101525.89;;;0.90;80.58
59417;BME280;45222;52.458;20.914;2023-02-11T04:18:21;101500.47;;;0.90;80.65
59417;BME280;45222;52.458;20.914;2023-02-11T04:22:09;101495.21;;;0.90;80.34
59417;BME280;45222;52.458;20.914;2023-02-11T04:25:57;101489.11;;;0.91;80.22
59417;BME280;45222;52.458;20.914;2023-02-11T04:29:45;101477.34;;;0.88;80.10
59417;BME280;45222;52.458;20.914;2023-02-11T04:33:34;101463.00;;;0.90;80.09
59417;BME280;45222;52.458;20.914;2023-02-11T04:37:22;101446.90;;;0.91;79.94
59417;BME280;45222;52.458;20.914;2023-02-11T04:41:10;101434.48;;;0.93;79.89
59417;BME280;45222;52.458;20.914;2023-02-11T04:44:58;101426.41;;;0.92;79.42
59417;BME280;45222;52.458;20.914;2023-02-11T04:48:47;101427.11;;;0.92;79.40
59417;BME280;45222;52.458;20.914;2023-02-11T04:52:35;101415.56;;;0.93;79.31
59417;BME280;45222;52.458;20.914;2023-02-11T04:56:23;101415.55;;;0.90;79.18
59417;BME280;45222;52.458;20.914;2023-02-11T05:00:13;101415.21;;;0.93;78.75
59417;BME280;45222;52.458;20.914;2023-02-11T05:04:02;101423.84;;;0.98;78.87
59417;BME280;45222;52.458;20.914;2023-02-11T05:07:50;101398.80;;;0.99;78.52
59417;BME280;45222;52.458;20.914;2023-02-11T05:11:38;101395.98;;;0.98;78.43
59417;BME280;45222;52.458;20.914;2023-02-11T05:15:27;101382.33;;;1.00;78.45
59417;BME280;45222;52.458;20.914;2023-02-11T05:19:18;101377.95;;;1.00;78.39
59417;BME280;45222;52.458;20.914;2023-02-11T05:23:08;101379.54;;;1.00;78.54
59417;BME280;45222;52.458;20.914;2023-02-11T05:26:57;101379.02;;;1.01;78.42
59417;BME280;45222;52.458;20.914;2023-02-11T05:30:44;101383.42;;;1.05;78.14
59417;BME280;45222;52.458;20.914;2023-02-11T05:34:33;101380.98;;;1.07;78.02
59417;BME280;45222;52.458;20.914;2023-02-11T05:38:21;101372.58;;;1.07;78.09
59417;BME280;45222;52.458;20.914;2023-02-11T05:42:09;101368.91;;;1.10;78.14
59417;BME280;45222;52.458;20.914;2023-02-11T05:45:57;101365.05;;;1.10;77.98
59417;BME280;45222;52.458;20.914;2023-02-11T05:49:46;101362.45;;;1.11;77.70
59417;BME280;45222;52.458;20.914;2023-02-11T05:53:34;101364.20;;;1.13;77.84
59417;BME280;45222;52.458;20.914;2023-02-11T05:57:23;101363.86;;;1.15;77.66
59417;BME280;45222;52.458;20.914;2023-02-11T06:01:11;101354.77;;;1.16;77.52
59417;BME280;45222;52.458;20.914;2023-02-11T06:04:59;101346.51;;;1.14;77.65
59417;BME280;45222;52.458;20.914;2023-02-11T06:08:47;101354.55;;;1.13;77.71
59417;BME280;45222;52.458;20.914;2023-02-11T06:12:36;101344.43;;;1.17;77.66
59417;BME280;45222;52.458;20.914;2023-02-11T06:16:24;101334.44;;;1.15;77.80
59417;BME280;45222;52.458;20.914;2023-02-11T06:20:12;101329.00;;;1.16;77.61
59417;BME280;45222;52.458;20.914;2023-02-11T06:24:00;101334.45;;;1.17;77.71
59417;BME280;45222;52.458;20.914;2023-02-11T06:27:48;101336.35;;;1.16;77.79
59417;BME280;45222;52.458;20.914;2023-02-11T06:31:37;101321.65;;;1.15;77.76
59417;BME280;45222;52.458;20.914;2023-02-11T06:35:25;101319.38;;;1.18;77.87
59417;BME280;45222;52.458;20.914;2023-02-11T06:39:13;101316.60;;;1.20;77.96
59417;BME280;45222;52.458;20.914;2023-02-11T06:43:01;101309.23;;;1.20;77.89
59417;BME280;45222;52.458;20.914;2023-02-11T06:46:49;101308.88;;;1.19;78.00
59417;BME280;45222;52.458;20.914;2023-02-11T06:50:37;101293.28;;;1.20;78.15
59417;BME280;45222;52.458;20.914;2023-02-11T06:54:25;101292.25;;;1.25;78.18
59417;BME280;45222;52.458;20.914;2023-02-11T06:58:13;101287.35;;;1.26;78.04
59417;BME280;45222;52.458;20.914;2023-02-11T07:02:01;101286.65;;;1.23;78.35
59417;BME280;45222;52.458;20.914;2023-02-11T07:05:49;101280.30;;;1.17;78.70
59417;BME280;45222;52.458;20.914;2023-02-11T07:09:37;101278.88;;;1.13;79.04
59417;BME280;45222;52.458;20.914;2023-02-11T07:13:26;101275.89;;;1.10;79.12
59417;BME280;45222;52.458;20.914;2023-02-11T07:17:13;101282.17;;;1.06;79.34
59417;BME280;45222;52.458;20.914;2023-02-11T07:21:04;101291.10;;;1.04;79.69
59417;BME280;45222;52.458;20.914;2023-02-11T07:24:53;101279.35;;;1.03;79.98
59417;BME280;45222;52.458;20.914;2023-02-11T07:28:41;101281.96;;;0.99;80.19
59417;BME280;45222;52.458;20.914;2023-02-11T07:32:29;101270.03;;;0.95;80.47
59417;BME280;45222;52.458;20.914;2023-02-11T07:36:17;101264.94;;;0.95;80.90
59417;BME280;45222;52.458;20.914;2023-02-11T07:40:06;101266.86;;;0.95;81.03
59417;BME280;45222;52.458;20.914;2023-02-11T07:43:55;101267.39;;;0.93;81.30
59417;BME280;45222;52.458;20.914;2023-02-11T07:47:43;101262.31;;;0.93;81.59
59417;BME280;45222;52.458;20.914;2023-02-11T07:51:31;101256.90;;;0.96;81.77
59417;BME280;45222;52.458;20.914;2023-02-11T07:55:19;101256.55;;;0.95;81.76
59417;BME280;45222;52.458;20.914;2023-02-11T07:59:07;101248.33;;;0.98;81.87
59417;BME280;45222;52.458;20.914;2023-02-11T08:02:57;101229.08;;;1.02;82.00
59417;BME280;45222;52.458;20.914;2023-02-11T08:06:45;101227.86;;;1.04;81.93
59417;BME280;45222;52.458;20.914;2023-02-11T08:10:33;101226.48;;;1.10;81.99
59417;BME280;45222;52.458;20.914;2023-02-11T08:14:21;101225.47;;;1.16;81.96
59417;BME280;45222;52.458;20.914;2023-02-11T08:18:10;101216.20;;;1.22;81.92
59417;BME280;45222;52.458;20.914;2023-02-11T08:21:58;101212.34;;;1.23;81.68
59417;BME280;45222;52.458;20.914;2023-02-11T08:25:47;101211.48;;;1.26;81.98
59417;BME280;45222;52.458;20.914;2023-02-11T08:29:35;101217.96;;;1.27;82.17
59417;BME280;45222;52.458;20.914;2023-02-11T08:33:23;101220.58;;;1.23;82.29
59417;BME280;45222;52.458;20.914;2023-02-11T08:37:11;101216.70;;;1.17;82.43
59417;BME280;45222;52.458;20.914;2023-02-11T08:41:01;101210.04;;;1.16;82.94
59417;BME280;45222;52.458;20.914;2023-02-11T08:44:50;101178.67;;;1.14;83.19
59417;BME280;45222;52.458;20.914;2023-02-11T08:48:38;101163.95;;;1.13;83.37
59417;BME280;45222;52.458;20.914;2023-02-11T08:52:26;101154.68;;;1.16;83.61
59417;BME280;45222;52.458;20.914;2023-02-11T08:56:16;101159.24;;;1.22;83.57
59417;BME280;45222;52.458;20.914;2023-02-11T09:00:05;101158.38;;;1.25;83.78
59417;BME280;45222;52.458;20.914;2023-02-11T09:03:54;101151.72;;;1.25;83.80
59417;BME280;45222;52.458;20.914;2023-02-11T09:07:42;101135.09;;;1.28;84.21
59417;BME280;45222;52.458;20.914;2023-02-11T09:11:32;101132.10;;;1.26;84.31
59417;BME280;45222;52.458;20.914;2023-02-11T09:15:20;101146.30;;;1.21;84.52
59417;BME280;45222;52.458;20.914;2023-02-11T09:19:10;101154.17;;;1.20;84.68
59417;BME280;45222;52.458;20.914;2023-02-11T09:22:59;101153.30;;;1.23;84.97
59417;BME280;45222;52.458;20.914;2023-02-11T09:26:47;101154.34;;;1.23;85.15
59417;BME280;45222;52.458;20.914;2023-02-11T09:30:36;101157.31;;;1.19;85.69
59417;BME280;45222;52.458;20.914;2023-02-11T09:34:25;101162.21;;;1.16;86.21
59417;BME280;45222;52.458;20.914;2023-02-11T09:38:13;101179.91;;;1.14;86.43
59417;BME280;45222;52.458;20.914;2023-02-11T09:42:09;101184.61;;;1.10;87.06
59417;BME280;45222;52.458;20.914;2023-02-11T09:46:03;101170.61;;;1.11;87.13
59417;BME280;45222;52.458;20.914;2023-02-11T09:49:55;101165.71;;;1.14;87.17
59417;BME280;45222;52.458;20.914;2023-02-11T09:53:45;101166.06;;;1.15;87.75
59417;BME280;45222;52.458;20.914;2023-02-11T09:57:37;101173.77;;;1.13;87.93
59417;BME280;45222;52.458;20.914;2023-02-11T10:01:42;101171.83;;;1.08;88.22
59417;BME280;45222;52.458;20.914;2023-02-11T10:05:45;101149.92;;;1.06;88.61
59417;BME280;45222;52.458;20.914;2023-02-11T10:09:56;101132.60;;;1.10;88.76
59417;BME280;45222;52.458;20.914;2023-02-11T10:13:55;101122.95;;;1.11;89.22
59417;BME280;45222;52.458;20.914;2023-02-11T10:17:58;101107.39;;;1.15;89.30
59417;BME280;45222;52.458;20.914;2023-02-11T10:21:54;101099.33;;;1.17;89.40
59417;BME280;45222;52.458;20.914;2023-02-11T10:25:47;101100.90;;;1.15;89.22
59417;BME280;45222;52.458;20.914;2023-02-11T10:29:45;101082.67;;;1.14;89.68
59417;BME280;45222;52.458;20.914;2023-02-11T10:33:39;101066.91;;;1.15;89.71
59417;BME280;45222;52.458;20.914;2023-02-11T10:37:30;101060.44;;;1.20;89.65
59417;BME280;45222;52.458;20.914;2023-02-11T10:41:21;101050.61;;;1.21;89.76
59417;BME280;45222;52.458;20.914;2023-02-11T10:45:20;101049.04;;;1.23;89.68
59417;BME280;45222;52.458;20.914;2023-02-11T10:49:09;101032.58;;;1.21;89.72
59417;BME280;45222;52.458;20.914;2023-02-11T10:53:19;101034.67;;;1.21;90.08
59417;BME280;45222;52.458;20.914;2023-02-11T10:57:11;101034.16;;;1.23;90.00
59417;BME280;45222;52.458;20.914;2023-02-11T11:01:05;101045.36;;;1.24;90.06
59417;BME280;45222;52.458;20.914;2023-02-11T11:04:56;101067.63;;;1.30;90.10
59417;BME280;45222;52.458;20.914;2023-02-11T11:08:46;101075.86;;;1.28;89.93
59417;BME280;45222;52.458;20.914;2023-02-11T11:12:39;101065.17;;;1.28;89.94
59417;BME280;45222;52.458;20.914;2023-02-11T11:16:34;101054.84;;;1.32;90.29
59417;BME280;45222;52.458;20.914;2023-02-11T11:20:25;101050.45;;;1.34;90.27
59417;BME280;45222;52.458;20.914;2023-02-11T11:24:19;101051.51;;;1.35;90.31
59417;BME280;45222;52.458;20.914;2023-02-11T11:28:20;101044.31;;;1.37;90.22
59417;BME280;45222;52.458;20.914;2023-02-11T11:32:14;101041.34;;;1.38;90.28
59417;BME280;45222;52.458;20.914;2023-02-11T11:36:08;101033.98;;;1.41;90.36
59417;BME280;45222;52.458;20.914;2023-02-11T11:40:01;101028.02;;;1.43;90.45
59417;BME280;45222;52.458;20.914;2023-02-11T11:43:59;101021.01;;;1.48;90.54
59417;BME280;45222;52.458;20.914;2023-02-11T11:47:52;101017.33;;;1.51;90.53
59417;BME280;45222;52.458;20.914;2023-02-11T11:51:43;101015.58;;;1.53;90.54
59417;BME280;45222;52.458;20.914;2023-02-11T11:55:36;101003.48;;;1.55;90.60
59417;BME280;45222;52.458;20.914;2023-02-11T11:59:28;101003.64;;;1.57;90.85
59417;BME280;45222;52.458;20.914;2023-02-11T12:07:45;101007.85;;;1.63;90.96
59417;BME280;45222;52.458;20.914;2023-02-11T12:11:48;100999.61;;;1.62;91.06
59417;BME280;45222;52.458;20.914;2023-02-11T12:15:46;101005.75;;;1.63;91.38
59417;BME280;45222;52.458;20.914;2023-02-11T12:19:52;101011.53;;;1.66;91.20
59417;BME280;45222;52.458;20.914;2023-02-11T12:23:52;101016.42;;;1.70;91.28
59417;BME280;45222;52.458;20.914;2023-02-11T12:27:49;101024.83;;;1.79;91.31
59417;BME280;45222;52.458;20.914;2023-02-11T12:31:57;101015.35;;;1.82;91.19
59417;BME280;45222;52.458;20.914;2023-02-11T12:35:57;101012.89;;;1.89;91.11
59417;BME280;45222;52.458;20.914;2023-02-11T12:39:50;101019.71;;;1.94;91.11
59417;BME280;45222;52.458;20.914;2023-02-11T12:43:49;100995.83;;;2.03;91.16
59417;BME280;45222;52.458;20.914;2023-02-11T12:47:48;101007.21;;;2.07;91.25
59417;BME280;45222;52.458;20.914;2023-02-11T12:51:57;101010.70;;;2.12;90.84
59417;BME280;45222;52.458;20.914;2023-02-11T12:55:53;101017.73;;;2.14;90.87
59417;BME280;45222;52.458;20.914;2023-02-11T12:59:50;101021.92;;;2.19;90.97
59417;BME280;45222;52.458;20.914;2023-02-11T13:03:45;101012.95;;;2.24;90.91
59417;BME280;45222;52.458;20.914;2023-02-11T13:07:38;101000.30;;;2.25;90.97
59417;BME280;45222;52.458;20.914;2023-02-11T13:11:33;100996.62;;;2.27;90.52
59417;BME280;45222;52.458;20.914;2023-02-11T13:15:23;100995.20;;;2.28;90.47
59417;BME280;45222;52.458;20.914;2023-02-11T13:19:19;100992.91;;;2.33;90.66
59417;BME280;45222;52.458;20.914;2023-02-11T13:23:18;101000.77;;;2.38;90.75
59417;BME280;45222;52.458;20.914;2023-02-11T13:27:19;101006.23;;;2.38;90.59
59417;BME280;45222;52.458;20.914;2023-02-11T13:31:09;101014.29;;;2.41;90.66
59417;BME280;45222;52.458;20.914;2023-02-11T13:35:00;101015.86;;;2.44;90.98
59417;BME280;45222;52.458;20.914;2023-02-11T13:38:57;101011.45;;;2.46;91.13
59417;BME280;45222;52.458;20.914;2023-02-11T13:42:52;101008.12;;;2.46;91.29
59417;BME280;45222;52.458;20.914;2023-02-11T13:47:00;101010.05;;;2.46;91.36
59417;BME280;45222;52.458;20.914;2023-02-11T13:50:53;101010.05;;;2.49;91.29
59417;BME280;45222;52.458;20.914;2023-02-11T13:54:48;101004.24;;;2.48;91.27
59417;BME280;45222;52.458;20.914;2023-02-11T13:58:47;101009.34;;;2.47;91.18
59417;BME280;45222;52.458;20.914;2023-02-11T14:02:36;101015.65;;;2.48;91.17
59417;BME280;45222;52.458;20.914;2023-02-11T14:11:48;101017.37;;;2.56;91.29
59417;BME280;45222;52.458;20.914;2023-02-11T14:15:41;101018.26;;;2.56;91.33
59417;BME280;45222;52.458;20.914;2023-02-11T14:19:36;101015.63;;;2.57;91.35
59417;BME280;45222;52.458;20.914;2023-02-11T14:23:27;101023.52;;;2.57;91.77
59417;BME280;45222;52.458;20.914;2023-02-11T14:27:21;101026.65;;;2.63;91.60
59417;BME280;45222;52.458;20.914;2023-02-11T14:31:12;101033.48;;;2.62;91.62
59417;BME280;45222;52.458;20.914;2023-02-11T14:35:09;101039.29;;;2.64;91.39
59417;BME280;45222;52.458;20.914;2023-02-11T14:39:04;101039.46;;;2.64;91.39
59417;BME280;45222;52.458;20.914;2023-02-11T14:42:56;101049.64;;;2.66;91.51
59417;BME280;45222;52.458;20.914;2023-02-11T14:46:50;101048.91;;;2.70;91.47
59417;BME280;45222;52.458;20.914;2023-02-11T14:50:42;101056.98;;;2.74;91.56
59417;BME280;45222;52.458;20.914;2023-02-11T14:54:32;101055.39;;;2.75;91.53
59417;BME280;45222;52.458;20.914;2023-02-11T14:58:23;101054.52;;;2.75;91.41
59417;BME280;45222;52.458;20.914;2023-02-11T15:02:33;101046.95;;;2.78;91.63
59417;BME280;45222;52.458;20.914;2023-02-11T15:06:24;101049.75;;;2.79;91.67
59417;BME280;45222;52.458;20.914;2023-02-11T15:10:20;101052.36;;;2.81;91.54
59417;BME280;45222;52.458;20.914;2023-02-11T15:14:15;101050.75;;;2.85;91.60
59417;BME280;45222;52.458;20.914;2023-02-11T15:18:06;101054.64;;;2.84;91.92
59417;BME280;45222;52.458;20.914;2023-02-11T15:21:55;101056.39;;;2.84;91.74
59417;BME280;45222;52.458;20.914;2023-02-11T15:25:46;101065.86;;;2.86;91.72
59417;BME280;45222;52.458;20.914;2023-02-11T15:29:40;101068.67;;;2.87;91.81
59417;BME280;45222;52.458;20.914;2023-02-11T15:33:29;101072.86;;;2.91;92.02
59417;BME280;45222;52.458;20.914;2023-02-11T15:37:18;101075.48;;;2.95;91.88
59417;BME280;45222;52.458;20.914;2023-02-11T15:41:07;101079.18;;;2.95;91.79
59417;BME280;45222;52.458;20.914;2023-02-11T15:45:25;101084.79;;;2.97;91.73
59417;BME280;45222;52.458;20.914;2023-02-11T15:49:16;101087.05;;;2.98;91.77
59417;BME280;45222;52.458;20.914;2023-02-11T15:53:20;101091.60;;;3.04;91.99
59417;BME280;45222;52.458;20.914;2023-02-11T15:57:10;101095.63;;;3.07;92.10
59417;BME280;45222;52.458;20.914;2023-02-11T16:00:58;101097.34;;;3.15;91.97
59417;BME280;45222;52.458;20.914;2023-02-11T16:04:52;101105.02;;;3.20;92.16
59417;BME280;45222;52.458;20.914;2023-02-11T16:08:41;101111.69;;;3.24;92.06
59417;BME280;45222;52.458;20.914;2023-02-11T16:12:29;101122.38;;;3.27;91.96
59417;BME280;45222;52.458;20.914;2023-02-11T16:16:20;101130.65;;;3.27;92.05
59417;BME280;45222;52.458;20.914;2023-02-11T16:20:18;101139.75;;;3.33;92.15
59417;BME280;45222;52.458;20.914;2023-02-11T16:24:14;101141.13;;;3.38;92.05
59417;BME280;45222;52.458;20.914;2023-02-11T16:28:05;101146.00;;;3.45;92.06
59417;BME280;45222;52.458;20.914;2023-02-11T16:32:08;101147.41;;;3.46;92.04
59417;BME280;45222;52.458;20.914;2023-02-11T16:35:56;101149.51;;;3.47;91.78
59417;BME280;45222;52.458;20.914;2023-02-11T16:39:47;101150.20;;;3.50;91.78
59417;BME280;45222;52.458;20.914;2023-02-11T16:43:36;101154.23;;;3.51;91.86
59417;BME280;45222;52.458;20.914;2023-02-11T16:47:25;101154.58;;;3.54;91.97
59417;BME280;45222;52.458;20.914;2023-02-11T16:51:14;101158.40;;;3.58;91.96
59417;BME280;45222;52.458;20.914;2023-02-11T16:55:02;101163.85;;;3.60;91.84
59417;BME280;45222;52.458;20.914;2023-02-11T16:58:50;101176.33;;;3.61;91.83
59417;BME280;45222;52.458;20.914;2023-02-11T17:02:39;101183.55;;;3.61;91.84
59417;BME280;45222;52.458;20.914;2023-02-11T17:06:27;101188.61;;;3.65;91.91
59417;BME280;45222;52.458;20.914;2023-02-11T17:10:17;101190.54;;;3.69;91.93
59417;BME280;45222;52.458;20.914;2023-02-11T17:14:05;101202.66;;;3.71;91.69
59417;BME280;45222;52.458;20.914;2023-02-11T17:17:53;101209.67;;;3.72;91.60
59417;BME280;45222;52.458;20.914;2023-02-11T17:21:43;101219.18;;;3.71;91.50
59417;BME280;45222;52.458;20.914;2023-02-11T17:25:31;101219.17;;;3.73;91.51
59417;BME280;45222;52.458;20.914;2023-02-11T17:29:22;101225.65;;;3.76;91.63
59417;BME280;45222;52.458;20.914;2023-02-11T17:33:10;101237.26;;;3.78;91.68
59417;BME280;45222;52.458;20.914;2023-02-11T17:36:58;101237.23;;;3.81;91.73
59417;BME280;45222;52.458;20.914;2023-02-11T17:40:57;101246.05;;;3.78;91.74
59417;BME280;45222;52.458;20.914;2023-02-11T17:44:46;101250.45;;;3.78;91.68
59417;BME280;45222;52.458;20.914;2023-02-11T17:48:35;101258.02;;;3.78;91.74
59417;BME280;45222;52.458;20.914;2023-02-11T17:52:23;101269.09;;;3.80;91.98
59417;BME280;45222;52.458;20.914;2023-02-11T17:56:13;101268.21;;;3.81;91.99
59417;BME280;45222;52.458;20.914;2023-02-11T18:00:01;101273.11;;;3.85;92.08
59417;BME280;45222;52.458;20.914;2023-02-11T18:03:50;101277.85;;;3.87;91.91
59417;BME280;45222;52.458;20.914;2023-02-11T18:07:38;101281.02;;;3.85;91.82
59417;BME280;45222;52.458;20.914;2023-02-11T18:11:26;101286.30;;;3.86;91.65
59417;BME280;45222;52.458;20.914;2023-02-11T18:15:16;101293.54;;;3.83;91.71
59417;BME280;45222;52.458;20.914;2023-02-11T18:19:04;101294.58;;;3.83;91.86
59417;BME280;45222;52.458;20.914;2023-02-11T18:22:51;101295.09;;;3.87;91.92
59417;BME280;45222;52.458;20.914;2023-02-11T18:26:39;101298.77;;;3.89;91.92
59417;BME280;45222;52.458;20.914;2023-02-11T18:30:27;101303.50;;;3.92;91.75
59417;BME280;45222;52.458;20.914;2023-02-11T18:34:16;101314.94;;;3.93;91.66
59417;BME280;45222;52.458;20.914;2023-02-11T18:38:05;101326.39;;;3.92;91.78
59417;BME280;45222;52.458;20.914;2023-02-11T18:41:55;101327.27;;;3.93;91.88
59417;BME280;45222;52.458;20.914;2023-02-11T18:45:44;101326.58;;;3.91;91.84
59417;BME280;45222;52.458;20.914;2023-02-11T18:49:33;101341.51;;;3.93;91.80
59417;BME280;45222;52.458;20.914;2023-02-11T18:53:22;101354.17;;;3.95;92.01
59417;BME280;45222;52.458;20.914;2023-02-11T18:57:11;101356.29;;;3.97;91.81
59417;BME280;45222;52.458;20.914;2023-02-11T19:00:59;101372.48;;;3.95;91.95
59417;BME280;45222;52.458;20.914;2023-02-11T19:04:47;101373.19;;;3.95;91.92
59417;BME280;45222;52.458;20.914;2023-02-11T19:08:35;101376.00;;;3.95;91.99
59417;BME280;45222;52.458;20.914;2023-02-11T19:12:23;101385.33;;;3.95;91.95
59417;BME280;45222;52.458;20.914;2023-02-11T19:16:12;101392.36;;;3.98;91.94
59417;BME280;45222;52.458;20.914;2023-02-11T19:20:02;101398.69;;;3.98;92.04
59417;BME280;45222;52.458;20.914;2023-02-11T19:23:49;101402.04;;;3.98;92.01
59417;BME280;45222;52.458;20.914;2023-02-11T19:27:37;101404.85;;;3.97;91.83
59417;BME280;45222;52.458;20.914;2023-02-11T19:31:27;101406.77;;;3.99;92.03
59417;BME280;45222;52.458;20.914;2023-02-11T19:35:18;101410.65;;;3.99;91.81
59417;BME280;45222;52.458;20.914;2023-02-11T19:39:06;101414.34;;;4.01;91.87
59417;BME280;45222;52.458;20.914;2023-02-11T19:42:54;101430.73;;;4.00;91.78
59417;BME280;45222;52.458;20.914;2023-02-11T19:46:42;101434.25;;;3.98;91.53
59417;BME280;45222;52.458;20.914;2023-02-11T19:50:30;101438.99;;;3.98;91.55
59417;BME280;45222;52.458;20.914;2023-02-11T19:54:19;101449.91;;;3.97;91.46
59417;BME280;45222;52.458;20.914;2023-02-11T19:58:07;101456.79;;;3.93;91.27
59417;BME280;45222;52.458;20.914;2023-02-11T20:01:55;101465.78;;;3.90;91.25
59417;BME280;45222;52.458;20.914;2023-02-11T20:05:43;101474.05;;;3.89;91.20
59417;BME280;45222;52.458;20.914;2023-02-11T20:09:33;101483.02;;;3.90;91.19
59417;BME280;45222;52.458;20.914;2023-02-11T20:13:21;101490.23;;;3.90;91.27
59417;BME280;45222;52.458;20.914;2023-02-11T20:17:09;101494.63;;;3.91;91.16
59417;BME280;45222;52.458;20.914;2023-02-11T20:20:57;101503.09;;;3.91;91.21
59417;BME280;45222;52.458;20.914;2023-02-11T20:24:47;101513.47;;;3.89;91.10